Terminal Aerodrome Forecast
Issued by NWS

Home | Current Version | Previous Version | Text Only | Print | Product List | Glossary Off
Versions: 1 2 3 4 5 6 7 8 9 10 11 12 13 14 15 16 17 18 19 20 21 22 23 24 25 26 27 28 29 30 31 32 33 34 35

000
FTUS45 KGGW 042100 AAA
TAFOLF
TAF AMD
KOLF 042144Z 0422/0518 36015G25KT 6SM HZ VCTS SCT090CB
     FM050000 02014KT P6SM -TSRA BKN060CB
     FM051000 02013KT P6SM -SHRA BKN050=

USA.gov is the U.S. government's official web portal to all federal, state and local government web resources and services.